N805PA EDFH-EDFH
Flight info
| Callsign | N805PA |
|---|---|
| Flight time | 0h 10m |
| Altitude | |
| Route | |
| Aircraft | C170 |
Departure
| Time | 2026-05-05 14:04 |
|---|---|
| Airport | Frankfurt-Hahn Airport (EDFH) |
Arrival
| Time | 2026-05-05 14:15 |
|---|---|
| Airport | Frankfurt-Hahn Airport (EDFH) |
| Time | Latitude | Longitude | Altitude | Speed | Heading |
|---|---|---|---|---|---|
| 2026-05-05 14:01 | 49.94353 | 7.26500 | 1651 ft | 0 kts | 123° |
| 2026-05-05 14:02 | 49.94353 | 7.26508 | 1651 ft | 2 kts | 349° |
| 2026-05-05 14:02 | 49.94386 | 7.26468 | 1651 ft | 11 kts | 9° |
| 2026-05-05 14:02 | 49.94442 | 7.26443 | 1650 ft | 10 kts | 311° |
| 2026-05-05 14:03 | 49.94489 | 7.26335 | 1650 ft | 14 kts | 303° |
| 2026-05-05 14:03 | 49.94544 | 7.26204 | 1651 ft | 13 kts | 302° |
| 2026-05-05 14:03 | 49.94560 | 7.26102 | 1651 ft | 13 kts | 223° |
| 2026-05-05 14:03 | 49.94315 | 7.25840 | 1664 ft | 77 kts | 212° |
| 2026-05-05 14:04 | 49.93765 | 7.25299 | 1872 ft | 100 kts | 214° |
| 2026-05-05 14:04 | 49.93214 | 7.24715 | 2057 ft | 93 kts | 213° |
| 2026-05-05 14:04 | 49.92523 | 7.24553 | 2205 ft | 107 kts | 164° |
| 2026-05-05 14:04 | 49.92037 | 7.25315 | 2323 ft | 106 kts | 123° |
| 2026-05-05 14:05 | 49.91750 | 7.26401 | 2546 ft | 117 kts | 83° |
| 2026-05-05 14:05 | 49.92202 | 7.27363 | 2657 ft | 102 kts | 37° |
| 2026-05-05 14:05 | 49.92809 | 7.28067 | 2688 ft | 118 kts | 35° |
| 2026-05-05 14:05 | 49.93506 | 7.28859 | 2638 ft | 117 kts | 36° |
| 2026-05-05 14:06 | 49.94169 | 7.29626 | 2623 ft | 126 kts | 36° |
| 2026-05-05 14:06 | 49.94636 | 7.30187 | 2622 ft | 130 kts | 37° |
| 2026-05-05 14:06 | 49.95032 | 7.30648 | 2711 ft | 132 kts | 36° |
| 2026-05-05 14:07 | 49.95594 | 7.31715 | 2873 ft | 120 kts | 74° |
| 2026-05-05 14:07 | 49.95448 | 7.32786 | 2790 ft | 96 kts | 136° |
| 2026-05-05 14:07 | 49.94811 | 7.32940 | 2748 ft | 96 kts | 209° |
| 2026-05-05 14:07 | 49.94555 | 7.32023 | 2695 ft | 99 kts | 282° |
| 2026-05-05 14:08 | 49.95014 | 7.31410 | 2559 ft | 91 kts | 357° |
| 2026-05-05 14:08 | 49.95628 | 7.31635 | 2454 ft | 99 kts | 17° |
| 2026-05-05 14:08 | 49.96337 | 7.32119 | 2567 ft | 121 kts | 29° |
| 2026-05-05 14:08 | 49.97093 | 7.32428 | 2615 ft | 112 kts | 332° |
| 2026-05-05 14:09 | 49.97574 | 7.31573 | 2580 ft | 98 kts | 306° |
| 2026-05-05 14:09 | 49.97932 | 7.30649 | 2508 ft | 94 kts | 282° |
| 2026-05-05 14:09 | 49.97817 | 7.29693 | 2371 ft | 98 kts | 246° |
| 2026-05-05 14:09 | 49.97351 | 7.28839 | 2270 ft | 104 kts | 220° |
| 2026-05-05 14:10 | 49.96767 | 7.28246 | 1992 ft | 98 kts | 212° |
| 2026-05-05 14:10 | 49.96192 | 7.27690 | 1817 ft | 94 kts | 212° |
| 2026-05-05 14:10 | 49.95670 | 7.27185 | 1639 ft | 80 kts | 213° |
| 2026-05-05 14:10 | 49.95277 | 7.26798 | 1643 ft | 71 kts | 211° |
| 2026-05-05 14:11 | 49.94843 | 7.26376 | 1705 ft | 86 kts | 214° |
| 2026-05-05 14:11 | 49.94322 | 7.25850 | 2057 ft | 94 kts | 213° |
| 2026-05-05 14:11 | 49.93758 | 7.25300 | 2192 ft | 101 kts | 212° |
| 2026-05-05 14:11 | 49.93215 | 7.24652 | 2375 ft | 98 kts | 248° |
| 2026-05-05 14:12 | 49.93377 | 7.23693 | 2382 ft | 100 kts | 301° |
| 2026-05-05 14:12 | 49.93771 | 7.22707 | 2447 ft | 115 kts | 302° |
| 2026-05-05 14:12 | 49.94447 | 7.22303 | 2573 ft | 125 kts | 25° |
| 2026-05-05 14:12 | 49.95156 | 7.22967 | 2615 ft | 126 kts | 31° |
| 2026-05-05 14:13 | 49.95933 | 7.23731 | 2607 ft | 142 kts | 32° |
| 2026-05-05 14:13 | 49.96781 | 7.24610 | 2571 ft | 149 kts | 33° |
| 2026-05-05 14:13 | 49.97657 | 7.25545 | 2509 ft | 154 kts | 34° |
| 2026-05-05 14:13 | 49.98063 | 7.26905 | 2605 ft | 146 kts | 112° |
| 2026-05-05 14:14 | 49.97583 | 7.28119 | 2417 ft | 129 kts | 123° |
| 2026-05-05 14:14 | 49.96900 | 7.28442 | 2202 ft | 122 kts | 212° |
| 2026-05-05 14:14 | 49.96217 | 7.27732 | 1897 ft | 103 kts | 215° |
| 2026-05-05 14:14 | 49.95658 | 7.27159 | 1645 ft | 90 kts | 213° |
| 2026-05-05 14:15 | 49.95206 | 7.26722 | 1641 ft | 61 kts | 210° |
| 2026-05-05 14:15 | 49.94933 | 7.26430 | 1645 ft | 33 kts | 210° |
| 2026-05-05 14:15 | 49.94761 | 7.26279 | 1647 ft | 26 kts | 211° |
| 2026-05-05 14:15 | 49.94615 | 7.26152 | 1650 ft | 19 kts | 174° |
| 2026-05-05 14:16 | 49.94555 | 7.26173 | 1651 ft | 7 kts | 124° |
| 2026-05-05 14:16 | 49.94517 | 7.26269 | 1650 ft | 13 kts | 121° |
| 2026-05-05 14:16 | 49.94460 | 7.26409 | 1650 ft | 17 kts | 121° |
| 2026-05-05 14:16 | 49.94381 | 7.26455 | 1651 ft | 13 kts | 202° |
| 2026-05-05 14:17 | 49.94359 | 7.26490 | 1651 ft | 6 kts | 158° |
| 2026-05-05 14:17 | 49.94354 | 7.26495 | 1651 ft | 0 kts | 127° |